sensor_id;sensor_type;location;lat;lon;timestamp;pressure;altitude;pressure_sealevel;temperature;humidity
37291;BME280;23175;-33.706;151.094;2023-07-29T00:00:45;100543.55;;;15.03;36.99
37291;BME280;23175;-33.706;151.094;2023-07-29T00:03:15;100542.34;;;13.50;38.71
37291;BME280;23175;-33.706;151.094;2023-07-29T00:05:45;100539.41;;;15.51;36.71
37291;BME280;23175;-33.706;151.094;2023-07-29T00:08:15;100546.20;;;14.32;37.36
37291;BME280;23175;-33.706;151.094;2023-07-29T00:10:45;100543.45;;;15.21;35.80
37291;BME280;23175;-33.706;151.094;2023-07-29T00:13:20;100541.16;;;15.62;35.09
37291;BME280;23175;-33.706;151.094;2023-07-29T00:15:53;100537.54;;;14.33;35.99
37291;BME280;23175;-33.706;151.094;2023-07-29T00:18:23;100532.98;;;18.54;31.90
37291;BME280;23175;-33.706;151.094;2023-07-29T00:20:53;100525.72;;;18.73;32.60
37291;BME280;23175;-33.706;151.094;2023-07-29T00:23:23;100525.88;;;19.92;30.94
37291;BME280;23175;-33.706;151.094;2023-07-29T00:25:58;100519.99;;;20.24;30.01
37291;BME280;23175;-33.706;151.094;2023-07-29T00:28:28;100520.06;;;16.43;34.30
37291;BME280;23175;-33.706;151.094;2023-07-29T00:30:58;100519.56;;;18.40;32.18
37291;BME280;23175;-33.706;151.094;2023-07-29T00:33:27;100514.23;;;18.76;31.93
37291;BME280;23175;-33.706;151.094;2023-07-29T00:35:58;100514.44;;;15.05;36.54
37291;BME280;23175;-33.706;151.094;2023-07-29T00:38:28;100510.63;;;14.88;37.67
37291;BME280;23175;-33.706;151.094;2023-07-29T00:41:00;100505.02;;;13.52;39.12
37291;BME280;23175;-33.706;151.094;2023-07-29T00:43:32;100498.02;;;16.60;35.58
37291;BME280;23175;-33.706;151.094;2023-07-29T00:46:02;100492.48;;;15.71;36.58
37291;BME280;23175;-33.706;151.094;2023-07-29T00:48:32;100499.79;;;12.60;41.67
37291;BME280;23175;-33.706;151.094;2023-07-29T00:51:02;100497.93;;;13.88;40.00
37291;BME280;23175;-33.706;151.094;2023-07-29T00:53:32;100493.12;;;16.86;36.58
37291;BME280;23175;-33.706;151.094;2023-07-29T00:56:03;100486.68;;;17.03;33.70
37291;BME280;23175;-33.706;151.094;2023-07-29T00:58:33;100484.69;;;18.29;32.40
37291;BME280;23175;-33.706;151.094;2023-07-29T01:01:04;100482.43;;;14.82;34.80
37291;BME280;23175;-33.706;151.094;2023-07-29T01:03:35;100476.15;;;13.58;37.08
37291;BME280;23175;-33.706;151.094;2023-07-29T01:06:12;100471.86;;;14.31;37.36
37291;BME280;23175;-33.706;151.094;2023-07-29T01:08:51;100468.31;;;16.87;34.90
37291;BME280;23175;-33.706;151.094;2023-07-29T01:11:33;100464.98;;;16.02;34.03
37291;BME280;23175;-33.706;151.094;2023-07-29T01:14:10;100458.31;;;16.93;33.10
37291;BME280;23175;-33.706;151.094;2023-07-29T01:16:45;100454.06;;;17.49;34.08
37291;BME280;23175;-33.706;151.094;2023-07-29T01:19:32;100451.34;;;15.11;35.25
37291;BME280;23175;-33.706;151.094;2023-07-29T01:22:05;100446.96;;;15.83;33.86
37291;BME280;23175;-33.706;151.094;2023-07-29T01:24:36;100446.87;;;13.16;38.49
37291;BME280;23175;-33.706;151.094;2023-07-29T01:27:07;100439.25;;;16.41;36.12
37291;BME280;23175;-33.706;151.094;2023-07-29T01:29:37;100435.17;;;13.81;38.93
37291;BME280;23175;-33.706;151.094;2023-07-29T01:32:13;100433.28;;;15.75;37.16
37291;BME280;23175;-33.706;151.094;2023-07-29T01:34:50;100424.85;;;16.43;36.92
37291;BME280;23175;-33.706;151.094;2023-07-29T01:37:25;100422.32;;;14.49;40.29
37291;BME280;23175;-33.706;151.094;2023-07-29T01:39:58;100412.32;;;18.17;35.13
37291;BME280;23175;-33.706;151.094;2023-07-29T01:42:35;100406.29;;;15.99;37.94
37291;BME280;23175;-33.706;151.094;2023-07-29T01:45:07;100402.63;;;15.04;37.90
37291;BME280;23175;-33.706;151.094;2023-07-29T01:47:37;100393.99;;;16.98;36.83
37291;BME280;23175;-33.706;151.094;2023-07-29T01:50:08;100384.67;;;17.87;36.26
37291;BME280;23175;-33.706;151.094;2023-07-29T01:52:38;100377.74;;;14.90;39.25
37291;BME280;23175;-33.706;151.094;2023-07-29T01:55:08;100377.73;;;16.39;36.61
37291;BME280;23175;-33.706;151.094;2023-07-29T01:57:43;100373.15;;;16.86;36.44
37291;BME280;23175;-33.706;151.094;2023-07-29T02:00:13;100371.60;;;15.04;39.08
37291;BME280;23175;-33.706;151.094;2023-07-29T02:02:43;100368.18;;;13.95;40.17
37291;BME280;23175;-33.706;151.094;2023-07-29T02:05:13;100362.40;;;15.94;38.04
37291;BME280;23175;-33.706;151.094;2023-07-29T02:07:43;100356.84;;;14.39;39.68
37291;BME280;23175;-33.706;151.094;2023-07-29T02:10:14;100355.05;;;15.37;37.95
37291;BME280;23175;-33.706;151.094;2023-07-29T02:12:44;100344.44;;;14.23;39.80
37291;BME280;23175;-33.706;151.094;2023-07-29T02:15:14;100339.55;;;16.57;37.46
37291;BME280;23175;-33.706;151.094;2023-07-29T02:17:44;100330.70;;;16.74;36.93
37291;BME280;23175;-33.706;151.094;2023-07-29T02:20:14;100327.00;;;14.89;37.77
37291;BME280;23175;-33.706;151.094;2023-07-29T02:22:45;100321.96;;;15.31;37.42
37291;BME280;23175;-33.706;151.094;2023-07-29T02:25:16;100318.38;;;17.68;35.05
37291;BME280;23175;-33.706;151.094;2023-07-29T02:27:46;100313.10;;;17.64;34.45
37291;BME280;23175;-33.706;151.094;2023-07-29T02:30:16;100315.39;;;16.81;36.09
37291;BME280;23175;-33.706;151.094;2023-07-29T02:32:46;100309.59;;;17.67;34.49
37291;BME280;23175;-33.706;151.094;2023-07-29T02:35:16;100306.54;;;15.58;38.05
37291;BME280;23175;-33.706;151.094;2023-07-29T02:37:47;100295.71;;;16.37;37.29
37291;BME280;23175;-33.706;151.094;2023-07-29T02:40:19;100293.90;;;18.34;34.03
37291;BME280;23175;-33.706;151.094;2023-07-29T02:42:49;100293.73;;;16.82;35.20
37291;BME280;23175;-33.706;151.094;2023-07-29T02:45:19;100282.29;;;18.75;33.31
37291;BME280;23175;-33.706;151.094;2023-07-29T02:47:50;100285.30;;;16.07;36.40
37291;BME280;23175;-33.706;151.094;2023-07-29T02:50:20;100277.87;;;15.39;37.31
37291;BME280;23175;-33.706;151.094;2023-07-29T02:52:50;100269.01;;;18.55;33.92
37291;BME280;23175;-33.706;151.094;2023-07-29T02:55:21;100268.55;;;17.19;36.57
37291;BME280;23175;-33.706;151.094;2023-07-29T02:57:51;100264.88;;;15.27;38.07
37291;BME280;23175;-33.706;151.094;2023-07-29T03:00:26;100259.18;;;17.66;35.76
37291;BME280;23175;-33.706;151.094;2023-07-29T03:02:55;100249.32;;;17.73;35.90
37291;BME280;23175;-33.706;151.094;2023-07-29T03:05:25;100248.20;;;16.50;37.14
37291;BME280;23175;-33.706;151.094;2023-07-29T03:07:57;100247.09;;;17.17;36.75
37291;BME280;23175;-33.706;151.094;2023-07-29T03:10:27;100248.49;;;16.28;37.82
37291;BME280;23175;-33.706;151.094;2023-07-29T03:12:57;100245.88;;;16.05;37.65
37291;BME280;23175;-33.706;151.094;2023-07-29T03:15:28;100240.41;;;17.77;35.79
37291;BME280;23175;-33.706;151.094;2023-07-29T03:17:57;100244.44;;;14.74;39.00
37291;BME280;23175;-33.706;151.094;2023-07-29T03:20:27;100244.22;;;17.03;36.54
37291;BME280;23175;-33.706;151.094;2023-07-29T03:22:57;100238.06;;;16.04;37.56
37291;BME280;23175;-33.706;151.094;2023-07-29T03:25:32;100243.34;;;16.71;35.68
37291;BME280;23175;-33.706;151.094;2023-07-29T03:28:02;100235.31;;;17.44;34.97
37291;BME280;23175;-33.706;151.094;2023-07-29T03:30:32;100238.90;;;15.68;37.70
37291;BME280;23175;-33.706;151.094;2023-07-29T03:33:02;100234.46;;;18.74;34.21
37291;BME280;23175;-33.706;151.094;2023-07-29T03:35:32;100237.84;;;15.59;36.74
37291;BME280;23175;-33.706;151.094;2023-07-29T03:38:02;100232.68;;;17.19;35.58
37291;BME280;23175;-33.706;151.094;2023-07-29T03:40:32;100233.25;;;18.77;34.32
37291;BME280;23175;-33.706;151.094;2023-07-29T03:43:03;100227.97;;;16.28;35.78
37291;BME280;23175;-33.706;151.094;2023-07-29T03:45:33;100228.15;;;16.07;36.86
37291;BME280;23175;-33.706;151.094;2023-07-29T03:48:04;100220.69;;;18.32;33.23
37291;BME280;23175;-33.706;151.094;2023-07-29T03:50:34;100222.25;;;18.36;33.55
37291;BME280;23175;-33.706;151.094;2023-07-29T03:53:05;100219.39;;;19.32;32.64
37291;BME280;23175;-33.706;151.094;2023-07-29T03:55:35;100221.59;;;19.97;33.21
37291;BME280;23175;-33.706;151.094;2023-07-29T03:58:05;100216.68;;;19.84;32.54
37291;BME280;23175;-33.706;151.094;2023-07-29T04:00:35;100215.66;;;18.66;33.06
37291;BME280;23175;-33.706;151.094;2023-07-29T04:03:06;100213.20;;;16.19;35.49
37291;BME280;23175;-33.706;151.094;2023-07-29T04:05:35;100209.30;;;17.49;34.97
37291;BME280;23175;-33.706;151.094;2023-07-29T04:08:06;100206.79;;;16.09;36.08
37291;BME280;23175;-33.706;151.094;2023-07-29T04:10:36;100201.82;;;16.48;35.79
37291;BME280;23175;-33.706;151.094;2023-07-29T04:13:06;100204.20;;;16.53;35.79
37291;BME280;23175;-33.706;151.094;2023-07-29T04:15:36;100207.15;;;14.45;38.39
37291;BME280;23175;-33.706;151.094;2023-07-29T04:18:06;100203.38;;;16.48;36.72
37291;BME280;23175;-33.706;151.094;2023-07-29T04:20:35;100197.56;;;17.88;34.75
37291;BME280;23175;-33.706;151.094;2023-07-29T04:23:05;100201.57;;;17.35;35.34
37291;BME280;23175;-33.706;151.094;2023-07-29T04:25:35;100202.15;;;17.65;34.99
37291;BME280;23175;-33.706;151.094;2023-07-29T04:28:05;100203.01;;;17.99;34.16
37291;BME280;23175;-33.706;151.094;2023-07-29T04:30:35;100202.55;;;17.25;35.97
37291;BME280;23175;-33.706;151.094;2023-07-29T04:33:05;100208.74;;;17.05;35.51
37291;BME280;23175;-33.706;151.094;2023-07-29T04:35:35;100211.36;;;17.41;35.08
37291;BME280;23175;-33.706;151.094;2023-07-29T04:38:06;100219.58;;;15.23;37.67
37291;BME280;23175;-33.706;151.094;2023-07-29T04:40:37;100221.04;;;16.92;36.52
37291;BME280;23175;-33.706;151.094;2023-07-29T04:43:07;100221.05;;;15.99;36.36
37291;BME280;23175;-33.706;151.094;2023-07-29T04:45:42;100216.05;;;17.38;35.07
37291;BME280;23175;-33.706;151.094;2023-07-29T04:48:17;100211.64;;;18.36;34.12
37291;BME280;23175;-33.706;151.094;2023-07-29T04:50:47;100211.41;;;16.61;35.99
37291;BME280;23175;-33.706;151.094;2023-07-29T04:53:17;100214.12;;;17.74;34.83
37291;BME280;23175;-33.706;151.094;2023-07-29T04:55:47;100209.44;;;20.25;32.11
37291;BME280;23175;-33.706;151.094;2023-07-29T04:58:17;100211.87;;;16.30;36.69
37291;BME280;23175;-33.706;151.094;2023-07-29T05:00:48;100206.19;;;16.96;35.17
37291;BME280;23175;-33.706;151.094;2023-07-29T05:03:18;100204.81;;;17.48;35.01
37291;BME280;23175;-33.706;151.094;2023-07-29T05:05:49;100211.70;;;16.17;37.13
37291;BME280;23175;-33.706;151.094;2023-07-29T05:08:24;100214.78;;;16.52;36.36
37291;BME280;23175;-33.706;151.094;2023-07-29T05:10:55;100207.43;;;18.62;34.62
37291;BME280;23175;-33.706;151.094;2023-07-29T05:13:25;100201.34;;;19.78;32.82
37291;BME280;23175;-33.706;151.094;2023-07-29T05:15:55;100197.10;;;20.42;32.07
37291;BME280;23175;-33.706;151.094;2023-07-29T05:18:26;100205.50;;;20.24;32.17
37291;BME280;23175;-33.706;151.094;2023-07-29T05:20:56;100206.05;;;20.82;31.73
37291;BME280;23175;-33.706;151.094;2023-07-29T05:23:26;100207.71;;;20.71;31.37
37291;BME280;23175;-33.706;151.094;2023-07-29T05:25:57;100203.76;;;15.97;36.35
37291;BME280;23175;-33.706;151.094;2023-07-29T05:28:26;100205.42;;;20.48;31.97
37291;BME280;23175;-33.706;151.094;2023-07-29T05:30:56;100203.05;;;18.65;33.86
37291;BME280;23175;-33.706;151.094;2023-07-29T05:33:26;100201.82;;;18.37;32.95
37291;BME280;23175;-33.706;151.094;2023-07-29T05:35:57;100202.43;;;20.83;31.60
37291;BME280;23175;-33.706;151.094;2023-07-29T05:38:27;100196.84;;;21.69;31.09
37291;BME280;23175;-33.706;151.094;2023-07-29T05:40:58;100195.09;;;21.26;31.18
37291;BME280;23175;-33.706;151.094;2023-07-29T05:43:28;100195.81;;;19.94;32.42
37291;BME280;23175;-33.706;151.094;2023-07-29T05:45:58;100194.28;;;21.69;30.98
37291;BME280;23175;-33.706;151.094;2023-07-29T05:48:29;100189.78;;;20.61;31.82
37291;BME280;23175;-33.706;151.094;2023-07-29T05:50:59;100186.79;;;21.64;30.96
37291;BME280;23175;-33.706;151.094;2023-07-29T05:53:29;100181.62;;;21.26;32.83
37291;BME280;23175;-33.706;151.094;2023-07-29T05:56:00;100182.88;;;21.72;33.91
37291;BME280;23175;-33.706;151.094;2023-07-29T05:58:30;100182.72;;;20.89;34.36
37291;BME280;23175;-33.706;151.094;2023-07-29T06:01:01;100184.87;;;21.63;33.37
37291;BME280;23175;-33.706;151.094;2023-07-29T06:03:31;100179.65;;;20.88;32.55
37291;BME280;23175;-33.706;151.094;2023-07-29T06:06:01;100181.48;;;20.39;33.38
37291;BME280;23175;-33.706;151.094;2023-07-29T06:08:31;100186.07;;;21.72;32.48
37291;BME280;23175;-33.706;151.094;2023-07-29T06:11:02;100181.86;;;21.33;31.40
37291;BME280;23175;-33.706;151.094;2023-07-29T06:13:32;100187.54;;;19.64;34.26
37291;BME280;23175;-33.706;151.094;2023-07-29T06:16:02;100187.86;;;18.37;35.65
37291;BME280;23175;-33.706;151.094;2023-07-29T06:18:32;100196.02;;;20.89;33.11
37291;BME280;23175;-33.706;151.094;2023-07-29T06:21:03;100203.37;;;20.59;34.02
37291;BME280;23175;-33.706;151.094;2023-07-29T06:23:33;100204.74;;;20.19;35.74
37291;BME280;23175;-33.706;151.094;2023-07-29T06:26:03;100203.52;;;18.17;37.81
37291;BME280;23175;-33.706;151.094;2023-07-29T06:28:33;100206.73;;;20.49;35.79
37291;BME280;23175;-33.706;151.094;2023-07-29T06:31:04;100212.67;;;17.69;38.02
37291;BME280;23175;-33.706;151.094;2023-07-29T06:33:34;100215.93;;;18.19;36.90
37291;BME280;23175;-33.706;151.094;2023-07-29T06:36:05;100216.26;;;18.62;36.67
37291;BME280;23175;-33.706;151.094;2023-07-29T06:38:35;100224.98;;;16.70;40.44
37291;BME280;23175;-33.706;151.094;2023-07-29T06:41:05;100220.98;;;17.40;39.04
37291;BME280;23175;-33.706;151.094;2023-07-29T06:43:36;100222.97;;;18.52;37.78
37291;BME280;23175;-33.706;151.094;2023-07-29T06:46:05;100226.90;;;18.11;37.96
37291;BME280;23175;-33.706;151.094;2023-07-29T06:48:36;100230.25;;;17.00;39.91
37291;BME280;23175;-33.706;151.094;2023-07-29T06:51:05;100229.93;;;17.55;39.30
37291;BME280;23175;-33.706;151.094;2023-07-29T06:53:36;100235.93;;;19.29;37.50
37291;BME280;23175;-33.706;151.094;2023-07-29T06:56:06;100240.83;;;12.97;45.78
37291;BME280;23175;-33.706;151.094;2023-07-29T06:58:36;100240.98;;;17.35;40.64
37291;BME280;23175;-33.706;151.094;2023-07-29T07:01:06;100239.77;;;16.96;41.21
37291;BME280;23175;-33.706;151.094;2023-07-29T07:03:36;100242.80;;;17.34;40.70
37291;BME280;23175;-33.706;151.094;2023-07-29T07:06:06;100244.62;;;16.56;41.50
37291;BME280;23175;-33.706;151.094;2023-07-29T07:08:36;100242.09;;;17.49;40.15
37291;BME280;23175;-33.706;151.094;2023-07-29T07:11:06;100244.49;;;16.55;41.21
37291;BME280;23175;-33.706;151.094;2023-07-29T07:13:36;100247.92;;;16.51;41.81
37291;BME280;23175;-33.706;151.094;2023-07-29T07:16:06;100251.48;;;15.73;43.18
37291;BME280;23175;-33.706;151.094;2023-07-29T07:18:36;100250.80;;;17.16;41.62
37291;BME280;23175;-33.706;151.094;2023-07-29T07:21:06;100254.62;;;17.70;40.43
37291;BME280;23175;-33.706;151.094;2023-07-29T07:23:36;100254.53;;;17.81;40.15
37291;BME280;23175;-33.706;151.094;2023-07-29T07:26:06;100257.77;;;18.20;40.11
37291;BME280;23175;-33.706;151.094;2023-07-29T07:28:35;100262.87;;;17.50;40.39
37291;BME280;23175;-33.706;151.094;2023-07-29T07:31:05;100261.14;;;17.63;40.29
37291;BME280;23175;-33.706;151.094;2023-07-29T07:33:36;100267.48;;;19.17;39.02
37291;BME280;23175;-33.706;151.094;2023-07-29T07:36:07;100267.19;;;19.18;38.60
37291;BME280;23175;-33.706;151.094;2023-07-29T07:38:36;100266.81;;;19.10;38.90
37291;BME280;23175;-33.706;151.094;2023-07-29T07:41:06;100271.70;;;19.32;38.62
37291;BME280;23175;-33.706;151.094;2023-07-29T07:43:36;100278.14;;;18.70;39.28
37291;BME280;23175;-33.706;151.094;2023-07-29T07:46:06;100283.06;;;18.91;39.17
37291;BME280;23175;-33.706;151.094;2023-07-29T07:48:36;100285.65;;;18.87;39.18
37291;BME280;23175;-33.706;151.094;2023-07-29T07:51:12;100291.31;;;18.97;38.88
37291;BME280;23175;-33.706;151.094;2023-07-29T07:53:42;100296.06;;;18.67;39.13
37291;BME280;23175;-33.706;151.094;2023-07-29T07:56:12;100290.54;;;18.66;39.32
37291;BME280;23175;-33.706;151.094;2023-07-29T07:58:41;100290.33;;;18.21;39.70
37291;BME280;23175;-33.706;151.094;2023-07-29T08:01:11;100295.32;;;17.66;40.00
37291;BME280;23175;-33.706;151.094;2023-07-29T08:03:42;100301.57;;;18.27;40.06
37291;BME280;23175;-33.706;151.094;2023-07-29T08:06:12;100307.35;;;18.40;40.08
37291;BME280;23175;-33.706;151.094;2023-07-29T08:08:41;100312.25;;;17.82;40.74
37291;BME280;23175;-33.706;151.094;2023-07-29T08:11:12;100317.19;;;18.10;40.82
37291;BME280;23175;-33.706;151.094;2023-07-29T08:13:41;100318.83;;;17.44;41.63
37291;BME280;23175;-33.706;151.094;2023-07-29T08:16:11;100323.20;;;17.13;41.99
37291;BME280;23175;-33.706;151.094;2023-07-29T08:18:42;100329.78;;;17.82;41.26
37291;BME280;23175;-33.706;151.094;2023-07-29T08:21:12;100328.44;;;17.58;41.41
37291;BME280;23175;-33.706;151.094;2023-07-29T08:23:44;100333.42;;;17.95;40.71
37291;BME280;23175;-33.706;151.094;2023-07-29T08:26:14;100328.85;;;16.56;42.56
37291;BME280;23175;-33.706;151.094;2023-07-29T08:28:44;100331.18;;;17.82;41.56
37291;BME280;23175;-33.706;151.094;2023-07-29T08:31:13;100328.40;;;17.53;41.27
37291;BME280;23175;-33.706;151.094;2023-07-29T08:33:43;100325.87;;;17.07;41.74
37291;BME280;23175;-33.706;151.094;2023-07-29T08:36:13;100335.47;;;17.28;41.46
37291;BME280;23175;-33.706;151.094;2023-07-29T08:38:44;100336.68;;;17.01;42.23
37291;BME280;23175;-33.706;151.094;2023-07-29T08:41:16;100335.94;;;17.00;42.44
37291;BME280;23175;-33.706;151.094;2023-07-29T08:43:56;100334.52;;;17.10;41.69
37291;BME280;23175;-33.706;151.094;2023-07-29T08:46:28;100342.43;;;17.07;41.68
37291;BME280;23175;-33.706;151.094;2023-07-29T08:48:59;100341.57;;;17.53;42.02
37291;BME280;23175;-33.706;151.094;2023-07-29T08:51:30;100342.08;;;16.93;42.19
37291;BME280;23175;-33.706;151.094;2023-07-29T08:54:01;100344.26;;;17.08;42.06
37291;BME280;23175;-33.706;151.094;2023-07-29T08:56:32;100341.68;;;16.82;41.65
37291;BME280;23175;-33.706;151.094;2023-07-29T08:59:02;100346.10;;;17.54;40.75
37291;BME280;23175;-33.706;151.094;2023-07-29T09:01:32;100350.29;;;17.27;40.97
37291;BME280;23175;-33.706;151.094;2023-07-29T09:04:03;100350.16;;;15.61;43.10
37291;BME280;23175;-33.706;151.094;2023-07-29T09:06:33;100347.69;;;16.75;41.27
37291;BME280;23175;-33.706;151.094;2023-07-29T09:09:04;100347.81;;;16.82;41.10
37291;BME280;23175;-33.706;151.094;2023-07-29T09:11:35;100353.41;;;17.26;40.92
37291;BME280;23175;-33.706;151.094;2023-07-29T09:14:05;100352.79;;;16.91;41.34
37291;BME280;23175;-33.706;151.094;2023-07-29T09:16:36;100356.22;;;17.09;41.47
37291;BME280;23175;-33.706;151.094;2023-07-29T09:19:06;100354.26;;;17.19;41.04
37291;BME280;23175;-33.706;151.094;2023-07-29T09:21:40;100350.89;;;17.21;41.10
37291;BME280;23175;-33.706;151.094;2023-07-29T09:24:10;100354.28;;;17.18;41.10
37291;BME280;23175;-33.706;151.094;2023-07-29T09:26:51;100364.84;;;17.11;41.34
37291;BME280;23175;-33.706;151.094;2023-07-29T09:29:27;100364.28;;;16.45;41.49
37291;BME280;23175;-33.706;151.094;2023-07-29T09:32:19;100367.93;;;16.63;41.19
37291;BME280;23175;-33.706;151.094;2023-07-29T09:34:49;100363.89;;;14.99;44.44
37291;BME280;23175;-33.706;151.094;2023-07-29T09:37:22;100361.36;;;16.48;41.84
37291;BME280;23175;-33.706;151.094;2023-07-29T09:39:52;100361.37;;;15.39;44.54
37291;BME280;23175;-33.706;151.094;2023-07-29T09:42:24;100364.96;;;16.17;42.42
37291;BME280;23175;-33.706;151.094;2023-07-29T09:44:54;100368.16;;;16.06;42.34
37291;BME280;23175;-33.706;151.094;2023-07-29T09:47:24;100367.27;;;16.30;41.77
37291;BME280;23175;-33.706;151.094;2023-07-29T09:49:55;100366.38;;;16.60;41.77
37291;BME280;23175;-33.706;151.094;2023-07-29T09:52:25;100365.24;;;16.00;42.47
37291;BME280;23175;-33.706;151.094;2023-07-29T09:54:56;100368.44;;;16.30;42.48
37291;BME280;23175;-33.706;151.094;2023-07-29T09:57:26;100375.98;;;16.21;41.96
37291;BME280;23175;-33.706;151.094;2023-07-29T09:59:56;100380.79;;;16.17;41.98
37291;BME280;23175;-33.706;151.094;2023-07-29T10:02:28;100385.50;;;16.06;42.17
37291;BME280;23175;-33.706;151.094;2023-07-29T10:04:59;100382.13;;;16.26;42.15
37291;BME280;23175;-33.706;151.094;2023-07-29T10:07:29;100382.22;;;16.21;42.22
37291;BME280;23175;-33.706;151.094;2023-07-29T10:10:00;100384.95;;;16.14;41.81
37291;BME280;23175;-33.706;151.094;2023-07-29T10:12:32;100384.30;;;15.94;42.09
37291;BME280;23175;-33.706;151.094;2023-07-29T10:15:07;100385.47;;;15.77;42.15
37291;BME280;23175;-33.706;151.094;2023-07-29T10:17:39;100384.87;;;16.30;41.82
37291;BME280;23175;-33.706;151.094;2023-07-29T10:20:11;100386.43;;;16.06;41.58
37291;BME280;23175;-33.706;151.094;2023-07-29T10:22:42;100387.48;;;16.39;41.45
37291;BME280;23175;-33.706;151.094;2023-07-29T10:25:16;100391.00;;;16.03;41.94
37291;BME280;23175;-33.706;151.094;2023-07-29T10:27:49;100385.34;;;15.99;41.63
37291;BME280;23175;-33.706;151.094;2023-07-29T10:30:21;100390.29;;;15.98;41.99
37291;BME280;23175;-33.706;151.094;2023-07-29T10:32:51;100391.36;;;16.56;41.60
37291;BME280;23175;-33.706;151.094;2023-07-29T10:35:21;100389.84;;;15.45;42.30
37291;BME280;23175;-33.706;151.094;2023-07-29T10:37:51;100389.33;;;15.56;43.21
37291;BME280;23175;-33.706;151.094;2023-07-29T10:40:21;100394.11;;;16.11;42.48
37291;BME280;23175;-33.706;151.094;2023-07-29T10:43:12;100399.56;;;16.16;42.39
37291;BME280;23175;-33.706;151.094;2023-07-29T10:45:43;100403.58;;;15.67;42.38
37291;BME280;23175;-33.706;151.094;2023-07-29T10:48:39;100409.11;;;14.96;42.63
37291;BME280;23175;-33.706;151.094;2023-07-29T10:51:26;100406.69;;;15.43;42.51
37291;BME280;23175;-33.706;151.094;2023-07-29T10:53:58;100412.86;;;15.72;42.71
37291;BME280;23175;-33.706;151.094;2023-07-29T10:56:31;100414.98;;;15.58;42.78
37291;BME280;23175;-33.706;151.094;2023-07-29T10:59:31;100415.68;;;15.81;43.02
37291;BME280;23175;-33.706;151.094;2023-07-29T11:02:03;100414.86;;;15.61;43.49
37291;BME280;23175;-33.706;151.094;2023-07-29T11:04:49;100415.06;;;15.36;43.35
37291;BME280;23175;-33.706;151.094;2023-07-29T11:07:22;100415.17;;;15.55;43.58
37291;BME280;23175;-33.706;151.094;2023-07-29T11:09:56;100414.84;;;15.48;43.63
37291;BME280;23175;-33.706;151.094;2023-07-29T11:12:44;100412.79;;;15.25;43.97
37291;BME280;23175;-33.706;151.094;2023-07-29T11:15:19;100422.32;;;14.98;43.77
37291;BME280;23175;-33.706;151.094;2023-07-29T11:17:51;100428.06;;;15.39;43.72
37291;BME280;23175;-33.706;151.094;2023-07-29T11:20:24;100428.35;;;15.37;43.61
37291;BME280;23175;-33.706;151.094;2023-07-29T11:22:56;100433.20;;;15.17;43.75
37291;BME280;23175;-33.706;151.094;2023-07-29T11:25:29;100432.50;;;15.12;43.82
37291;BME280;23175;-33.706;151.094;2023-07-29T11:28:01;100430.64;;;15.36;43.60
37291;BME280;23175;-33.706;151.094;2023-07-29T11:30:31;100430.43;;;15.36;43.51
37291;BME280;23175;-33.706;151.094;2023-07-29T11:33:01;100433.32;;;15.38;43.57
37291;BME280;23175;-33.706;151.094;2023-07-29T11:35:33;100435.05;;;15.17;43.87
37291;BME280;23175;-33.706;151.094;2023-07-29T11:38:04;100435.15;;;15.25;44.19
37291;BME280;23175;-33.706;151.094;2023-07-29T11:40:34;100434.04;;;15.21;44.05
37291;BME280;23175;-33.706;151.094;2023-07-29T11:43:04;100434.46;;;14.67;44.16
37291;BME280;23175;-33.706;151.094;2023-07-29T11:45:34;100432.98;;;15.01;44.11
37291;BME280;23175;-33.706;151.094;2023-07-29T11:48:06;100434.75;;;15.00;43.51
37291;BME280;23175;-33.706;151.094;2023-07-29T11:50:36;100434.14;;;15.30;44.24
37291;BME280;23175;-33.706;151.094;2023-07-29T11:53:07;100441.71;;;14.97;44.21
37291;BME280;23175;-33.706;151.094;2023-07-29T11:55:37;100443.63;;;14.61;44.14
37291;BME280;23175;-33.706;151.094;2023-07-29T11:58:07;100447.27;;;14.47;44.37
37291;BME280;23175;-33.706;151.094;2023-07-29T12:00:39;100444.75;;;14.78;44.14
37291;BME280;23175;-33.706;151.094;2023-07-29T12:03:09;100440.57;;;14.48;44.01
37291;BME280;23175;-33.706;151.094;2023-07-29T12:05:40;100433.86;;;14.65;43.83
37291;BME280;23175;-33.706;151.094;2023-07-29T12:08:10;100438.78;;;14.83;43.98
37291;BME280;23175;-33.706;151.094;2023-07-29T12:10:41;100438.33;;;14.76;44.14
37291;BME280;23175;-33.706;151.094;2023-07-29T12:13:11;100431.63;;;14.37;44.76
37291;BME280;23175;-33.706;151.094;2023-07-29T12:15:40;100438.71;;;14.86;44.46
37291;BME280;23175;-33.706;151.094;2023-07-29T12:18:11;100439.00;;;14.56;44.21
37291;BME280;23175;-33.706;151.094;2023-07-29T12:20:41;100440.33;;;14.81;44.20
37291;BME280;23175;-33.706;151.094;2023-07-29T12:23:11;100440.47;;;14.58;44.06
37291;BME280;23175;-33.706;151.094;2023-07-29T12:25:41;100435.80;;;14.69;44.22
37291;BME280;23175;-33.706;151.094;2023-07-29T12:28:11;100437.27;;;13.73;44.51
37291;BME280;23175;-33.706;151.094;2023-07-29T12:30:43;100436.06;;;14.79;43.93
37291;BME280;23175;-33.706;151.094;2023-07-29T12:33:30;100432.81;;;14.24;43.90
37291;BME280;23175;-33.706;151.094;2023-07-29T12:36:01;100428.55;;;14.86;43.86
37291;BME280;23175;-33.706;151.094;2023-07-29T12:38:32;100422.79;;;14.38;44.10
37291;BME280;23175;-33.706;151.094;2023-07-29T12:41:02;100418.39;;;14.20;44.36